sensor_id;sensor_type;location;lat;lon;timestamp;temperature;humidity
13569;DHT22;6856;51.460;7.158;2023-04-02T00:01:25;10.90;71.60
13569;DHT22;6856;51.460;7.158;2023-04-02T00:04:18;10.90;71.60
13569;DHT22;6856;51.460;7.158;2023-04-02T00:07:22;10.90;71.50
13569;DHT22;6856;51.460;7.158;2023-04-02T00:10:25;10.80;71.60
13569;DHT22;6856;51.460;7.158;2023-04-02T00:13:03;10.80;71.40
13569;DHT22;6856;51.460;7.158;2023-04-02T00:15:40;11.00;71.60
13569;DHT22;6856;51.460;7.158;2023-04-02T00:18:17;10.70;71.40
13569;DHT22;6856;51.460;7.158;2023-04-02T00:21:02;10.70;71.40
13569;DHT22;6856;51.460;7.158;2023-04-02T00:23:42;10.70;71.40
13569;DHT22;6856;51.460;7.158;2023-04-02T00:26:21;10.60;71.40
13569;DHT22;6856;51.460;7.158;2023-04-02T00:28:58;10.70;71.50
13569;DHT22;6856;51.460;7.158;2023-04-02T00:31:33;10.60;71.50
13569;DHT22;6856;51.460;7.158;2023-04-02T00:34:16;10.60;71.50
13569;DHT22;6856;51.460;7.158;2023-04-02T00:36:55;10.50;71.40
13569;DHT22;6856;51.460;7.158;2023-04-02T00:39:31;10.50;71.40
13569;DHT22;6856;51.460;7.158;2023-04-02T00:42:11;10.50;71.40
13569;DHT22;6856;51.460;7.158;2023-04-02T00:44:45;10.50;71.40
13569;DHT22;6856;51.460;7.158;2023-04-02T00:47:24;10.50;71.30
13569;DHT22;6856;51.460;7.158;2023-04-02T00:50:14;10.50;71.30
13569;DHT22;6856;51.460;7.158;2023-04-02T00:52:55;10.40;71.20
13569;DHT22;6856;51.460;7.158;2023-04-02T00:55:34;10.50;71.10
13569;DHT22;6856;51.460;7.158;2023-04-02T00:58:16;10.30;71.00
13569;DHT22;6856;51.460;7.158;2023-04-02T01:01:01;10.30;70.90
13569;DHT22;6856;51.460;7.158;2023-04-02T01:03:35;10.30;71.00
13569;DHT22;6856;51.460;7.158;2023-04-02T01:06:13;10.20;70.80
13569;DHT22;6856;51.460;7.158;2023-04-02T01:12:29;10.20;70.90
13569;DHT22;6856;51.460;7.158;2023-04-02T01:15:12;10.10;70.70
13569;DHT22;6856;51.460;7.158;2023-04-02T01:18:06;10.10;70.70
13569;DHT22;6856;51.460;7.158;2023-04-02T01:21:06;10.00;70.80
13569;DHT22;6856;51.460;7.158;2023-04-02T01:24:06;10.00;70.90
13569;DHT22;6856;51.460;7.158;2023-04-02T01:26:55;10.00;71.00
13569;DHT22;6856;51.460;7.158;2023-04-02T01:29:35;10.00;71.00
13569;DHT22;6856;51.460;7.158;2023-04-02T01:32:14;10.00;71.00
13569;DHT22;6856;51.460;7.158;2023-04-02T01:34:52;10.00;71.00
13569;DHT22;6856;51.460;7.158;2023-04-02T01:37:34;9.90;70.90
13569;DHT22;6856;51.460;7.158;2023-04-02T01:40:27;9.90;70.80
13569;DHT22;6856;51.460;7.158;2023-04-02T01:43:13;9.90;70.70
13569;DHT22;6856;51.460;7.158;2023-04-02T01:45:56;9.90;70.70
13569;DHT22;6856;51.460;7.158;2023-04-02T01:48:30;9.80;70.60
13569;DHT22;6856;51.460;7.158;2023-04-02T01:51:06;9.80;70.70
13569;DHT22;6856;51.460;7.158;2023-04-02T01:53:40;9.80;70.70
13569;DHT22;6856;51.460;7.158;2023-04-02T01:56:13;9.70;70.70
13569;DHT22;6856;51.460;7.158;2023-04-02T01:58:48;9.70;70.80
13569;DHT22;6856;51.460;7.158;2023-04-02T02:01:26;9.70;70.60
13569;DHT22;6856;51.460;7.158;2023-04-02T02:04:05;9.70;70.70
13569;DHT22;6856;51.460;7.158;2023-04-02T02:06:43;9.70;70.80
13569;DHT22;6856;51.460;7.158;2023-04-02T02:09:21;9.60;70.80
13569;DHT22;6856;51.460;7.158;2023-04-02T02:12:00;9.60;70.90
13569;DHT22;6856;51.460;7.158;2023-04-02T02:14:35;9.60;70.90
13569;DHT22;6856;51.460;7.158;2023-04-02T02:17:13;9.60;71.70
13569;DHT22;6856;51.460;7.158;2023-04-02T02:19:51;9.60;71.10
13569;DHT22;6856;51.460;7.158;2023-04-02T02:22:30;9.60;71.00
13569;DHT22;6856;51.460;7.158;2023-04-02T02:25:10;9.60;71.00
13569;DHT22;6856;51.460;7.158;2023-04-02T02:27:54;9.60;71.00
13569;DHT22;6856;51.460;7.158;2023-04-02T02:30:35;9.60;70.90
13569;DHT22;6856;51.460;7.158;2023-04-02T02:33:14;9.60;70.90
13569;DHT22;6856;51.460;7.158;2023-04-02T02:35:55;9.50;70.80
13569;DHT22;6856;51.460;7.158;2023-04-02T02:38:46;9.50;70.70
13569;DHT22;6856;51.460;7.158;2023-04-02T02:41:29;9.50;70.80
13569;DHT22;6856;51.460;7.158;2023-04-02T02:44:12;9.50;70.70
13569;DHT22;6856;51.460;7.158;2023-04-02T02:46:52;9.40;70.60
13569;DHT22;6856;51.460;7.158;2023-04-02T02:49:35;9.40;70.60
13569;DHT22;6856;51.460;7.158;2023-04-02T02:52:15;9.40;70.70
13569;DHT22;6856;51.460;7.158;2023-04-02T02:54:53;9.40;70.80
13569;DHT22;6856;51.460;7.158;2023-04-02T02:57:32;9.40;70.70
13569;DHT22;6856;51.460;7.158;2023-04-02T03:00:09;9.40;70.70
13569;DHT22;6856;51.460;7.158;2023-04-02T03:02:47;9.30;70.60
13569;DHT22;6856;51.460;7.158;2023-04-02T03:05:25;9.30;70.60
13569;DHT22;6856;51.460;7.158;2023-04-02T03:08:02;9.30;70.60
13569;DHT22;6856;51.460;7.158;2023-04-02T03:10:43;9.30;70.70
13569;DHT22;6856;51.460;7.158;2023-04-02T03:13:28;9.30;70.70
13569;DHT22;6856;51.460;7.158;2023-04-02T03:16:10;9.20;70.70
13569;DHT22;6856;51.460;7.158;2023-04-02T03:18:52;9.20;70.70
13569;DHT22;6856;51.460;7.158;2023-04-02T03:21:36;9.20;70.80
13569;DHT22;6856;51.460;7.158;2023-04-02T03:24:26;9.20;70.80
13569;DHT22;6856;51.460;7.158;2023-04-02T03:27:10;9.20;70.70
13569;DHT22;6856;51.460;7.158;2023-04-02T03:29:56;9.10;70.70
13569;DHT22;6856;51.460;7.158;2023-04-02T03:32:37;9.10;70.70
13569;DHT22;6856;51.460;7.158;2023-04-02T03:35:19;9.10;70.70
13569;DHT22;6856;51.460;7.158;2023-04-02T03:38:02;9.10;70.70
13569;DHT22;6856;51.460;7.158;2023-04-02T03:40:42;9.10;70.70
13569;DHT22;6856;51.460;7.158;2023-04-02T03:43:24;9.00;70.50
13569;DHT22;6856;51.460;7.158;2023-04-02T03:46:10;9.00;70.50
13569;DHT22;6856;51.460;7.158;2023-04-02T03:48:56;9.00;70.50
13569;DHT22;6856;51.460;7.158;2023-04-02T03:51:35;8.90;70.30
13569;DHT22;6856;51.460;7.158;2023-04-02T03:54:15;8.90;70.40
13569;DHT22;6856;51.460;7.158;2023-04-02T03:56:51;8.80;70.30
13569;DHT22;6856;51.460;7.158;2023-04-02T03:59:32;8.80;70.40
13569;DHT22;6856;51.460;7.158;2023-04-02T04:02:18;8.80;70.40
13569;DHT22;6856;51.460;7.158;2023-04-02T04:05:17;8.80;70.40
13569;DHT22;6856;51.460;7.158;2023-04-02T04:07:58;8.70;70.40
13569;DHT22;6856;51.460;7.158;2023-04-02T04:10:35;8.70;70.30
13569;DHT22;6856;51.460;7.158;2023-04-02T04:13:12;8.70;70.30
13569;DHT22;6856;51.460;7.158;2023-04-02T04:15:55;8.60;70.40
13569;DHT22;6856;51.460;7.158;2023-04-02T04:18:36;8.60;70.40
13569;DHT22;6856;51.460;7.158;2023-04-02T04:21:19;8.60;70.40
13569;DHT22;6856;51.460;7.158;2023-04-02T04:24:02;8.60;70.30
13569;DHT22;6856;51.460;7.158;2023-04-02T04:26:42;8.60;70.30
13569;DHT22;6856;51.460;7.158;2023-04-02T04:29:31;8.50;70.20
13569;DHT22;6856;51.460;7.158;2023-04-02T04:32:20;8.50;70.20
13569;DHT22;6856;51.460;7.158;2023-04-02T04:35:02;8.50;70.30
13569;DHT22;6856;51.460;7.158;2023-04-02T04:37:40;8.50;70.40
13569;DHT22;6856;51.460;7.158;2023-04-02T04:40:23;8.50;70.30
13569;DHT22;6856;51.460;7.158;2023-04-02T04:43:04;8.40;70.20
13569;DHT22;6856;51.460;7.158;2023-04-02T04:45:45;8.40;70.20
13569;DHT22;6856;51.460;7.158;2023-04-02T04:48:26;8.40;70.20
13569;DHT22;6856;51.460;7.158;2023-04-02T04:51:09;8.30;70.30
13569;DHT22;6856;51.460;7.158;2023-04-02T04:53:52;8.30;70.40
13569;DHT22;6856;51.460;7.158;2023-04-02T04:56:28;8.30;70.40
13569;DHT22;6856;51.460;7.158;2023-04-02T04:59:13;8.30;70.40
13569;DHT22;6856;51.460;7.158;2023-04-02T05:01:56;8.30;70.30
13569;DHT22;6856;51.460;7.158;2023-04-02T05:04:36;8.20;70.10
13569;DHT22;6856;51.460;7.158;2023-04-02T05:07:14;8.20;70.10
13569;DHT22;6856;51.460;7.158;2023-04-02T05:09:54;8.10;70.00
13569;DHT22;6856;51.460;7.158;2023-04-02T05:12:34;8.10;70.20
13569;DHT22;6856;51.460;7.158;2023-04-02T05:15:19;8.10;70.20
13569;DHT22;6856;51.460;7.158;2023-04-02T05:18:14;8.10;70.20
13569;DHT22;6856;51.460;7.158;2023-04-02T05:20:58;8.10;70.30
13569;DHT22;6856;51.460;7.158;2023-04-02T05:23:44;8.10;70.30
13569;DHT22;6856;51.460;7.158;2023-04-02T05:26:25;8.10;70.20
13569;DHT22;6856;51.460;7.158;2023-04-02T05:29:10;8.00;70.20
13569;DHT22;6856;51.460;7.158;2023-04-02T05:31:56;8.00;70.10
13569;DHT22;6856;51.460;7.158;2023-04-02T05:34:35;8.20;70.20
13569;DHT22;6856;51.460;7.158;2023-04-02T05:37:13;8.10;70.20
13569;DHT22;6856;51.460;7.158;2023-04-02T05:39:52;8.00;70.10
13569;DHT22;6856;51.460;7.158;2023-04-02T05:42:30;8.00;70.10
13569;DHT22;6856;51.460;7.158;2023-04-02T05:45:18;7.90;70.00
13569;DHT22;6856;51.460;7.158;2023-04-02T05:48:00;7.90;70.00
13569;DHT22;6856;51.460;7.158;2023-04-02T05:50:40;7.90;70.00
13569;DHT22;6856;51.460;7.158;2023-04-02T05:53:20;7.90;70.00
13569;DHT22;6856;51.460;7.158;2023-04-02T05:56:00;7.80;69.90
13569;DHT22;6856;51.460;7.158;2023-04-02T05:58:42;7.80;69.80
13569;DHT22;6856;51.460;7.158;2023-04-02T06:01:31;7.80;69.90
13569;DHT22;6856;51.460;7.158;2023-04-02T06:04:19;7.80;69.90
13569;DHT22;6856;51.460;7.158;2023-04-02T06:07:02;7.80;69.90
13569;DHT22;6856;51.460;7.158;2023-04-02T06:09:42;7.80;69.90
13569;DHT22;6856;51.460;7.158;2023-04-02T06:12:26;7.80;69.90
13569;DHT22;6856;51.460;7.158;2023-04-02T06:15:03;7.80;69.90
13569;DHT22;6856;51.460;7.158;2023-04-02T06:17:44;7.70;69.80
13569;DHT22;6856;51.460;7.158;2023-04-02T06:20:21;7.70;69.70
13569;DHT22;6856;51.460;7.158;2023-04-02T06:22:57;7.70;69.60
13569;DHT22;6856;51.460;7.158;2023-04-02T06:25:38;7.70;69.60
13569;DHT22;6856;51.460;7.158;2023-04-02T06:28:19;7.70;69.60
13569;DHT22;6856;51.460;7.158;2023-04-02T06:31:02;7.70;69.60
13569;DHT22;6856;51.460;7.158;2023-04-02T06:33:40;7.60;69.60
13569;DHT22;6856;51.460;7.158;2023-04-02T06:36:15;7.60;69.70
13569;DHT22;6856;51.460;7.158;2023-04-02T06:38:50;7.60;69.70
13569;DHT22;6856;51.460;7.158;2023-04-02T06:41:26;7.60;69.80
13569;DHT22;6856;51.460;7.158;2023-04-02T06:44:03;7.60;69.80
13569;DHT22;6856;51.460;7.158;2023-04-02T06:46:45;7.60;69.90
13569;DHT22;6856;51.460;7.158;2023-04-02T06:49:29;7.70;69.90
13569;DHT22;6856;51.460;7.158;2023-04-02T06:52:14;7.60;69.80
13569;DHT22;6856;51.460;7.158;2023-04-02T06:54:52;7.60;69.70
13569;DHT22;6856;51.460;7.158;2023-04-02T06:57:26;7.60;69.80
13569;DHT22;6856;51.460;7.158;2023-04-02T07:00:04;7.50;70.40
13569;DHT22;6856;51.460;7.158;2023-04-02T07:02:54;7.50;69.90
13569;DHT22;6856;51.460;7.158;2023-04-02T07:05:28;7.70;69.90
13569;DHT22;6856;51.460;7.158;2023-04-02T07:08:04;7.50;69.90
13569;DHT22;6856;51.460;7.158;2023-04-02T07:10:38;7.50;69.90
13569;DHT22;6856;51.460;7.158;2023-04-02T07:13:15;7.50;69.80
13569;DHT22;6856;51.460;7.158;2023-04-02T07:15:52;7.50;70.70
13569;DHT22;6856;51.460;7.158;2023-04-02T07:18:29;7.50;70.00
13569;DHT22;6856;51.460;7.158;2023-04-02T07:21:04;7.50;70.10
13569;DHT22;6856;51.460;7.158;2023-04-02T07:23:39;7.50;70.10
13569;DHT22;6856;51.460;7.158;2023-04-02T07:26:15;7.50;70.10
13569;DHT22;6856;51.460;7.158;2023-04-02T07:28:50;7.70;70.20
13569;DHT22;6856;51.460;7.158;2023-04-02T07:31:25;7.50;70.00
13569;DHT22;6856;51.460;7.158;2023-04-02T07:34:00;7.50;70.00
13569;DHT22;6856;51.460;7.158;2023-04-02T07:36:34;7.50;70.00
13569;DHT22;6856;51.460;7.158;2023-04-02T07:39:10;7.50;70.00
13569;DHT22;6856;51.460;7.158;2023-04-02T07:41:51;7.50;69.90
13569;DHT22;6856;51.460;7.158;2023-04-02T07:44:26;7.60;69.90
13569;DHT22;6856;51.460;7.158;2023-04-02T07:46:59;7.60;69.80
13569;DHT22;6856;51.460;7.158;2023-04-02T07:49:33;7.60;69.60
13569;DHT22;6856;51.460;7.158;2023-04-02T07:52:07;7.60;69.80
13569;DHT22;6856;51.460;7.158;2023-04-02T07:54:42;7.60;69.90
13569;DHT22;6856;51.460;7.158;2023-04-02T07:57:16;7.60;69.90
13569;DHT22;6856;51.460;7.158;2023-04-02T07:59:49;7.60;69.90
13569;DHT22;6856;51.460;7.158;2023-04-02T08:02:24;7.60;69.80
13569;DHT22;6856;51.460;7.158;2023-04-02T08:04:59;7.70;69.70
13569;DHT22;6856;51.460;7.158;2023-04-02T08:07:33;7.70;69.60
13569;DHT22;6856;51.460;7.158;2023-04-02T08:10:10;7.90;69.60
13569;DHT22;6856;51.460;7.158;2023-04-02T08:12:44;7.70;69.50
13569;DHT22;6856;51.460;7.158;2023-04-02T08:15:18;7.70;69.50
13569;DHT22;6856;51.460;7.158;2023-04-02T08:17:52;7.80;69.50
13569;DHT22;6856;51.460;7.158;2023-04-02T08:20:26;7.70;69.40
13569;DHT22;6856;51.460;7.158;2023-04-02T08:23:12;7.80;69.30
13569;DHT22;6856;51.460;7.158;2023-04-02T08:25:50;7.80;69.00
13569;DHT22;6856;51.460;7.158;2023-04-02T08:28:26;7.80;69.10
13569;DHT22;6856;51.460;7.158;2023-04-02T08:31:00;7.80;69.00
13569;DHT22;6856;51.460;7.158;2023-04-02T08:33:35;7.80;69.00
13569;DHT22;6856;51.460;7.158;2023-04-02T08:36:14;7.80;68.80
13569;DHT22;6856;51.460;7.158;2023-04-02T08:38:49;7.80;68.80
13569;DHT22;6856;51.460;7.158;2023-04-02T08:41:25;7.80;68.70
13569;DHT22;6856;51.460;7.158;2023-04-02T08:44:18;7.80;68.80
13569;DHT22;6856;51.460;7.158;2023-04-02T08:47:02;7.90;68.90
13569;DHT22;6856;51.460;7.158;2023-04-02T08:49:42;7.90;69.00
13569;DHT22;6856;51.460;7.158;2023-04-02T08:52:23;7.90;69.00
13569;DHT22;6856;51.460;7.158;2023-04-02T08:55:00;7.90;69.10
13569;DHT22;6856;51.460;7.158;2023-04-02T08:57:42;8.10;70.10
13569;DHT22;6856;51.460;7.158;2023-04-02T09:00:28;7.90;69.00
13569;DHT22;6856;51.460;7.158;2023-04-02T09:03:12;8.00;69.10
13569;DHT22;6856;51.460;7.158;2023-04-02T09:05:50;8.00;68.90
13569;DHT22;6856;51.460;7.158;2023-04-02T09:08:25;8.00;68.80
13569;DHT22;6856;51.460;7.158;2023-04-02T09:11:08;8.10;68.70
13569;DHT22;6856;51.460;7.158;2023-04-02T09:14:18;8.10;68.30
13569;DHT22;6856;51.460;7.158;2023-04-02T09:17:00;8.10;68.10
13569;DHT22;6856;51.460;7.158;2023-04-02T09:19:37;8.10;68.20
13569;DHT22;6856;51.460;7.158;2023-04-02T09:22:19;8.10;69.00
13569;DHT22;6856;51.460;7.158;2023-04-02T09:24:56;8.10;68.20
13569;DHT22;6856;51.460;7.158;2023-04-02T09:27:34;8.20;68.30
13569;DHT22;6856;51.460;7.158;2023-04-02T09:30:21;8.20;68.40
13569;DHT22;6856;51.460;7.158;2023-04-02T09:33:04;8.20;68.40
13569;DHT22;6856;51.460;7.158;2023-04-02T09:35:55;8.20;68.40
13569;DHT22;6856;51.460;7.158;2023-04-02T09:38:29;8.30;68.10
13569;DHT22;6856;51.460;7.158;2023-04-02T09:41:05;8.50;68.10
13569;DHT22;6856;51.460;7.158;2023-04-02T09:44:10;8.30;67.70
13569;DHT22;6856;51.460;7.158;2023-04-02T09:46:58;8.30;67.50
13569;DHT22;6856;51.460;7.158;2023-04-02T09:49:36;8.30;67.40
13569;DHT22;6856;51.460;7.158;2023-04-02T09:52:20;8.30;67.40
13569;DHT22;6856;51.460;7.158;2023-04-02T09:55:17;8.40;67.20
13569;DHT22;6856;51.460;7.158;2023-04-02T09:58:11;8.40;67.20
13569;DHT22;6856;51.460;7.158;2023-04-02T10:00:50;8.50;67.20
13569;DHT22;6856;51.460;7.158;2023-04-02T10:03:30;8.60;67.30
13569;DHT22;6856;51.460;7.158;2023-04-02T10:06:07;8.40;67.10
13569;DHT22;6856;51.460;7.158;2023-04-02T10:08:43;8.40;67.20
13569;DHT22;6856;51.460;7.158;2023-04-02T10:11:22;8.50;67.00
13569;DHT22;6856;51.460;7.158;2023-04-02T10:14:16;8.50;66.90
13569;DHT22;6856;51.460;7.158;2023-04-02T10:16:55;8.50;66.80
13569;DHT22;6856;51.460;7.158;2023-04-02T10:19:35;8.50;66.80
13569;DHT22;6856;51.460;7.158;2023-04-02T10:22:13;8.50;66.70
13569;DHT22;6856;51.460;7.158;2023-04-02T10:24:50;8.50;66.80
13569;DHT22;6856;51.460;7.158;2023-04-02T10:27:28;8.50;66.80
13569;DHT22;6856;51.460;7.158;2023-04-02T10:30:17;8.60;66.90
13569;DHT22;6856;51.460;7.158;2023-04-02T10:32:58;8.60;66.80
13569;DHT22;6856;51.460;7.158;2023-04-02T10:35:41;8.60;66.60
13569;DHT22;6856;51.460;7.158;2023-04-02T10:38:32;8.60;66.50
13569;DHT22;6856;51.460;7.158;2023-04-02T10:41:31;8.70;66.40
13569;DHT22;6856;51.460;7.158;2023-04-02T10:44:26;8.60;66.00
13569;DHT22;6856;51.460;7.158;2023-04-02T10:47:17;8.60;66.10
13569;DHT22;6856;51.460;7.158;2023-04-02T10:50:13;8.60;66.20
13569;DHT22;6856;51.460;7.158;2023-04-02T10:53:09;8.70;66.10
13569;DHT22;6856;51.460;7.158;2023-04-02T10:55:50;8.70;65.90
13569;DHT22;6856;51.460;7.158;2023-04-02T10:58:30;8.90;66.00
13569;DHT22;6856;51.460;7.158;2023-04-02T11:01:14;8.70;66.20
13569;DHT22;6856;51.460;7.158;2023-04-02T11:03:57;8.80;66.20
13569;DHT22;6856;51.460;7.158;2023-04-02T11:06:39;8.80;66.10
13569;DHT22;6856;51.460;7.158;2023-04-02T11:09:23;8.80;65.80
13569;DHT22;6856;51.460;7.158;2023-04-02T11:12:00;8.90;66.10
13569;DHT22;6856;51.460;7.158;2023-04-02T11:14:37;8.90;66.20
13569;DHT22;6856;51.460;7.158;2023-04-02T11:17:13;9.00;65.90
13569;DHT22;6856;51.460;7.158;2023-04-02T11:19:48;9.00;65.90
13569;DHT22;6856;51.460;7.158;2023-04-02T11:22:23;9.10;65.80
13569;DHT22;6856;51.460;7.158;2023-04-02T11:25:00;9.10;65.70
13569;DHT22;6856;51.460;7.158;2023-04-02T11:27:35;9.20;65.60
13569;DHT22;6856;51.460;7.158;2023-04-02T11:30:20;9.20;65.40
13569;DHT22;6856;51.460;7.158;2023-04-02T11:33:24;9.30;65.00
13569;DHT22;6856;51.460;7.158;2023-04-02T11:39:46;9.40;65.20
13569;DHT22;6856;51.460;7.158;2023-04-02T11:42:30;9.40;65.00
13569;DHT22;6856;51.460;7.158;2023-04-02T11:48:28;9.50;64.20
13569;DHT22;6856;51.460;7.158;2023-04-02T11:51:14;9.50;64.40
13569;DHT22;6856;51.460;7.158;2023-04-02T11:54:29;9.50;64.30
13569;DHT22;6856;51.460;7.158;2023-04-02T11:57:21;9.60;64.30
13569;DHT22;6856;51.460;7.158;2023-04-02T12:00:40;9.60;64.10
13569;DHT22;6856;51.460;7.158;2023-04-02T12:07:08;9.60;63.80
13569;DHT22;6856;51.460;7.158;2023-04-02T12:09:59;9.60;63.90
13569;DHT22;6856;51.460;7.158;2023-04-02T12:12:36;9.70;63.80
13569;DHT22;6856;51.460;7.158;2023-04-02T12:15:33;9.70;63.90
13569;DHT22;6856;51.460;7.158;2023-04-02T12:18:14;9.70;63.40
13569;DHT22;6856;51.460;7.158;2023-04-02T12:20:50;9.70;63.70
13569;DHT22;6856;51.460;7.158;2023-04-02T12:23:27;9.70;63.60
13569;DHT22;6856;51.460;7.158;2023-04-02T12:26:04;9.80;63.50
13569;DHT22;6856;51.460;7.158;2023-04-02T12:28:40;9.80;63.20
13569;DHT22;6856;51.460;7.158;2023-04-02T12:31:20;9.80;63.00
13569;DHT22;6856;51.460;7.158;2023-04-02T12:33:56;9.80;62.90
13569;DHT22;6856;51.460;7.158;2023-04-02T12:36:30;9.80;62.90
13569;DHT22;6856;51.460;7.158;2023-04-02T12:39:15;9.80;62.70
13569;DHT22;6856;51.460;7.158;2023-04-02T12:41:49;9.80;62.30
13569;DHT22;6856;51.460;7.158;2023-04-02T12:44:25;9.80;62.30
13569;DHT22;6856;51.460;7.158;2023-04-02T12:47:03;9.80;62.10
13569;DHT22;6856;51.460;7.158;2023-04-02T12:49:38;9.70;61.90
13569;DHT22;6856;51.460;7.158;2023-04-02T12:52:17;9.80;62.10
13569;DHT22;6856;51.460;7.158;2023-04-02T12:54:53;9.70;62.00
13569;DHT22;6856;51.460;7.158;2023-04-02T12:57:39;9.70;62.00
13569;DHT22;6856;51.460;7.158;2023-04-02T13:00:32;9.70;61.60
13569;DHT22;6856;51.460;7.158;2023-04-02T13:03:17;9.70;61.60
13569;DHT22;6856;51.460;7.158;2023-04-02T13:05:54;9.90;61.90
13569;DHT22;6856;51.460;7.158;2023-04-02T13:08:30;9.70;62.00
13569;DHT22;6856;51.460;7.158;2023-04-02T13:11:11;9.90;62.30
13569;DHT22;6856;51.460;7.158;2023-04-02T13:13:46;9.80;62.30
13569;DHT22;6856;51.460;7.158;2023-04-02T13:16:27;9.80;62.00
13569;DHT22;6856;51.460;7.158;2023-04-02T13:19:28;9.80;61.70
13569;DHT22;6856;51.460;7.158;2023-04-02T13:22:26;9.90;61.50
13569;DHT22;6856;51.460;7.158;2023-04-02T13:25:04;9.90;61.60
13569;DHT22;6856;51.460;7.158;2023-04-02T13:27:38;9.90;61.40
13569;DHT22;6856;51.460;7.158;2023-04-02T13:30:21;10.10;61.40
13569;DHT22;6856;51.460;7.158;2023-04-02T13:32:56;9.90;61.10
13569;DHT22;6856;51.460;7.158;2023-04-02T13:35:31;10.00;61.50
13569;DHT22;6856;51.460;7.158;2023-04-02T13:38:06;10.00;61.60
13569;DHT22;6856;51.460;7.158;2023-04-02T13:40:40;10.10;61.70
13569;DHT22;6856;51.460;7.158;2023-04-02T13:43:16;10.10;61.50
13569;DHT22;6856;51.460;7.158;2023-04-02T13:45:52;10.40;61.50
13569;DHT22;6856;51.460;7.158;2023-04-02T13:48:28;10.20;61.40
13569;DHT22;6856;51.460;7.158;2023-04-02T13:51:02;10.40;60.90
13569;DHT22;6856;51.460;7.158;2023-04-02T13:53:38;10.30;60.80
13569;DHT22;6856;51.460;7.158;2023-04-02T13:56:13;10.40;60.50
13569;DHT22;6856;51.460;7.158;2023-04-02T13:58:46;10.40;60.60
13569;DHT22;6856;51.460;7.158;2023-04-02T14:01:22;10.60;60.80
13569;DHT22;6856;51.460;7.158;2023-04-02T14:03:58;10.60;61.10
13569;DHT22;6856;51.460;7.158;2023-04-02T14:09:58;10.80;60.20
13569;DHT22;6856;51.460;7.158;2023-04-02T14:12:47;10.90;59.80
13569;DHT22;6856;51.460;7.158;2023-04-02T14:15:38;11.00;59.60
13569;DHT22;6856;51.460;7.158;2023-04-02T14:18:42;11.10;59.40
13569;DHT22;6856;51.460;7.158;2023-04-02T14:21:37;11.10;59.10
13569;DHT22;6856;51.460;7.158;2023-04-02T14:24:27;11.10;59.10
13569;DHT22;6856;51.460;7.158;2023-04-02T14:27:17;11.20;59.10
13569;DHT22;6856;51.460;7.158;2023-04-02T14:30:02;11.20;59.00
13569;DHT22;6856;51.460;7.158;2023-04-02T14:32:47;11.20;59.20
13569;DHT22;6856;51.460;7.158;2023-04-02T14:35:30;11.30;59.40
13569;DHT22;6856;51.460;7.158;2023-04-02T14:38:15;11.40;59.60
13569;DHT22;6856;51.460;7.158;2023-04-02T14:40:57;11.50;59.50
13569;DHT22;6856;51.460;7.158;2023-04-02T14:43:41;11.70;59.60
13569;DHT22;6856;51.460;7.158;2023-04-02T14:46:18;11.80;59.40
13569;DHT22;6856;51.460;7.158;2023-04-02T14:49:00;11.90;59.10
13569;DHT22;6856;51.460;7.158;2023-04-02T14:51:42;12.10;58.70
13569;DHT22;6856;51.460;7.158;2023-04-02T14:54:28;12.10;58.30
13569;DHT22;6856;51.460;7.158;2023-04-02T14:57:11;12.10;57.90
13569;DHT22;6856;51.460;7.158;2023-04-02T14:59:58;12.10;57.90
13569;DHT22;6856;51.460;7.158;2023-04-02T15:02:39;12.10;57.60
13569;DHT22;6856;51.460;7.158;2023-04-02T15:05:18;12.10;57.40
13569;DHT22;6856;51.460;7.158;2023-04-02T15:08:00;12.10;57.60
13569;DHT22;6856;51.460;7.158;2023-04-02T15:10:42;12.10;57.30
13569;DHT22;6856;51.460;7.158;2023-04-02T15:13:30;12.10;57.20
13569;DHT22;6856;51.460;7.158;2023-04-02T15:16:14;12.10;56.90
13569;DHT22;6856;51.460;7.158;2023-04-02T15:18:55;12.10;57.40
13569;DHT22;6856;51.460;7.158;2023-04-02T15:21:40;12.10;56.90
13569;DHT22;6856;51.460;7.158;2023-04-02T15:24:30;12.10;56.90
13569;DHT22;6856;51.460;7.158;2023-04-02T15:27:23;12.10;57.40
13569;DHT22;6856;51.460;7.158;2023-04-02T15:30:08;12.10;57.00
13569;DHT22;6856;51.460;7.158;2023-04-02T15:32:49;12.20;57.10
13569;DHT22;6856;51.460;7.158;2023-04-02T15:35:31;12.10;56.80
13569;DHT22;6856;51.460;7.158;2023-04-02T15:38:19;12.10;57.20
13569;DHT22;6856;51.460;7.158;2023-04-02T15:40:58;12.20;56.80
13569;DHT22;6856;51.460;7.158;2023-04-02T15:43:40;12.20;56.80
13569;DHT22;6856;51.460;7.158;2023-04-02T15:46:20;12.30;56.70
13569;DHT22;6856;51.460;7.158;2023-04-02T15:49:12;12.30;56.70
13569;DHT22;6856;51.460;7.158;2023-04-02T15:52:04;12.30;56.20
13569;DHT22;6856;51.460;7.158;2023-04-02T15:55:06;12.30;56.10
13569;DHT22;6856;51.460;7.158;2023-04-02T15:58:08;12.60;55.90
13569;DHT22;6856;51.460;7.158;2023-04-02T16:01:03;12.30;55.90
13569;DHT22;6856;51.460;7.158;2023-04-02T16:07:23;12.20;55.30
13569;DHT22;6856;51.460;7.158;2023-04-02T16:10:14;12.20;55.60
13569;DHT22;6856;51.460;7.158;2023-04-02T16:13:17;12.20;55.90
13569;DHT22;6856;51.460;7.158;2023-04-02T16:16:04;12.20;55.80
13569;DHT22;6856;51.460;7.158;2023-04-02T16:18:46;12.20;55.60
13569;DHT22;6856;51.460;7.158;2023-04-02T16:21:31;12.40;55.60
13569;DHT22;6856;51.460;7.158;2023-04-02T16:24:10;12.20;55.50
13569;DHT22;6856;51.460;7.158;2023-04-02T16:26:51;12.10;55.60
13569;DHT22;6856;51.460;7.158;2023-04-02T16:29:41;12.30;55.50
13569;DHT22;6856;51.460;7.158;2023-04-02T16:32:44;12.10;55.10
13569;DHT22;6856;51.460;7.158;2023-04-02T16:35:28;12.00;55.20
13569;DHT22;6856;51.460;7.158;2023-04-02T16:38:23;12.00;55.50
13569;DHT22;6856;51.460;7.158;2023-04-02T16:41:18;11.90;55.30
13569;DHT22;6856;51.460;7.158;2023-04-02T16:44:06;11.90;55.10
13569;DHT22;6856;51.460;7.158;2023-04-02T16:46:57;11.80;55.00
13569;DHT22;6856;51.460;7.158;2023-04-02T16:49:49;11.70;55.00
13569;DHT22;6856;51.460;7.158;2023-04-02T16:52:38;11.70;54.90
13569;DHT22;6856;51.460;7.158;2023-04-02T16:55:39;11.70;55.30
13569;DHT22;6856;51.460;7.158;2023-04-02T16:58:32;11.70;55.30
13569;DHT22;6856;51.460;7.158;2023-04-02T17:01:23;11.70;55.40
13569;DHT22;6856;51.460;7.158;2023-04-02T17:04:17;11.70;55.30
13569;DHT22;6856;51.460;7.158;2023-04-02T17:07:09;11.60;54.90
13569;DHT22;6856;51.460;7.158;2023-04-02T17:10:03;11.60;54.80
13569;DHT22;6856;51.460;7.158;2023-04-02T17:12:59;11.60;55.10
13569;DHT22;6856;51.460;7.158;2023-04-02T17:15:36;11.50;55.10
13569;DHT22;6856;51.460;7.158;2023-04-02T17:18:16;11.50;55.10
13569;DHT22;6856;51.460;7.158;2023-04-02T17:20:52;11.40;54.80
13569;DHT22;6856;51.460;7.158;2023-04-02T17:23:29;11.40;55.00
13569;DHT22;6856;51.460;7.158;2023-04-02T17:26:23;11.30;54.90
13569;DHT22;6856;51.460;7.158;2023-04-02T17:29:05;11.30;55.00
13569;DHT22;6856;51.460;7.158;2023-04-02T17:31:42;11.30;55.00
13569;DHT22;6856;51.460;7.158;2023-04-02T17:34:18;11.30;55.20
13569;DHT22;6856;51.460;7.158;2023-04-02T17:37:03;11.20;54.90
13569;DHT22;6856;51.460;7.158;2023-04-02T17:39:52;11.20;54.60
13569;DHT22;6856;51.460;7.158;2023-04-02T17:42:46;11.10;54.60
13569;DHT22;6856;51.460;7.158;2023-04-02T17:45:32;11.10;54.60
13569;DHT22;6856;51.460;7.158;2023-04-02T17:48:17;11.00;54.40
13569;DHT22;6856;51.460;7.158;2023-04-02T17:51:09;11.00;54.40
13569;DHT22;6856;51.460;7.158;2023-04-02T17:53:57;10.90;54.30
13569;DHT22;6856;51.460;7.158;2023-04-02T17:56:53;10.80;54.30